createdAt,value
2022-11-17T00:00:41.887Z,8.3
2022-11-17T00:01:42.119Z,8.3
2022-11-17T00:02:42.504Z,8.3
2022-11-17T00:03:42.728Z,8.3
2022-11-17T00:04:42.869Z,8.3
2022-11-17T00:05:43.012Z,8.3
2022-11-17T00:06:43.150Z,8.3
2022-11-17T00:07:43.286Z,8.3
2022-11-17T00:08:43.418Z,8.3
2022-11-17T00:09:43.559Z,8.3
2022-11-17T00:10:43.691Z,8.3
2022-11-17T00:11:43.820Z,8.3
2022-11-17T00:12:43.953Z,8.3
2022-11-17T00:13:44.096Z,8.3
2022-11-17T00:14:44.237Z,8.3
2022-11-17T00:15:44.381Z,8.3
2022-11-17T00:16:44.532Z,8.3
2022-11-17T00:17:44.668Z,8.3
2022-11-17T00:18:44.805Z,8.3
2022-11-17T00:19:44.946Z,8.3
2022-11-17T00:20:45.110Z,8.3
2022-11-17T00:21:45.331Z,8.3
2022-11-17T00:22:45.469Z,8.3
2022-11-17T00:23:45.603Z,8.3
2022-11-17T00:24:45.745Z,8.3
2022-11-17T00:25:45.881Z,8.3
2022-11-17T00:26:46.028Z,8.3
2022-11-17T00:27:46.173Z,8.3
2022-11-17T00:28:46.339Z,8.3
2022-11-17T00:29:46.477Z,8.3
2022-11-17T00:30:46.619Z,8.3
2022-11-17T00:31:46.763Z,8.3
2022-11-17T00:32:46.910Z,8.3
2022-11-17T00:33:47.044Z,8.3
2022-11-17T00:34:47.180Z,8.3
2022-11-17T00:35:47.311Z,8.3
2022-11-17T00:36:47.443Z,8.3
2022-11-17T00:37:47.670Z,8.3
2022-11-17T00:38:47.806Z,8.3
2022-11-17T00:39:47.943Z,8.3
2022-11-17T00:40:48.092Z,8.3
2022-11-17T00:41:48.245Z,8.3
2022-11-17T00:42:48.388Z,8.3
2022-11-17T00:43:48.518Z,8.3
2022-11-17T00:44:48.660Z,8.3
2022-11-17T00:45:48.795Z,8.3
2022-11-17T00:46:48.937Z,8.39
2022-11-17T00:47:49.072Z,8.39
2022-11-17T00:48:49.263Z,8.39
2022-11-17T00:49:49.396Z,8.39
2022-11-17T00:50:49.532Z,8.39
2022-11-17T00:51:49.663Z,8.39
2022-11-17T00:52:49.794Z,8.39
2022-11-17T00:53:49.929Z,8.39
2022-11-17T00:54:50.069Z,8.39
2022-11-17T00:55:50.402Z,8.39
2022-11-17T00:56:50.742Z,8.39
2022-11-17T00:57:50.904Z,8.39
2022-11-17T00:58:51.048Z,8.39
2022-11-17T00:59:51.196Z,8.39
2022-11-17T01:00:51.336Z,8.39
2022-11-17T01:01:51.620Z,8.39
2022-11-17T01:02:51.834Z,8.39
2022-11-17T01:03:51.974Z,8.39
2022-11-17T01:04:52.137Z,8.39
2022-11-17T01:05:52.277Z,8.39
2022-11-17T01:06:52.570Z,8.5
2022-11-17T01:07:52.900Z,8.5
2022-11-17T01:08:53.032Z,8.5
2022-11-17T01:09:53.180Z,8.5
2022-11-17T01:10:53.315Z,8.5
2022-11-17T01:11:53.468Z,8.5
2022-11-17T01:12:53.618Z,8.5
2022-11-17T01:13:53.758Z,8.5
2022-11-17T01:14:53.946Z,8.5
2022-11-17T01:15:54.111Z,8.5
2022-11-17T01:16:54.263Z,8.6
2022-11-17T01:17:54.423Z,8.6
2022-11-17T01:18:54.562Z,8.6
2022-11-17T01:19:54.700Z,8.6
2022-11-17T01:20:54.835Z,8.6
2022-11-17T01:21:54.967Z,8.6
2022-11-17T01:22:55.105Z,8.6
2022-11-17T01:23:55.241Z,8.6
2022-11-17T01:24:55.373Z,8.6
2022-11-17T01:25:55.511Z,8.6
2022-11-17T01:26:55.645Z,8.7
2022-11-17T01:27:55.780Z,8.7
2022-11-17T01:28:55.917Z,8.7
2022-11-17T01:29:56.064Z,8.7
2022-11-17T01:30:56.203Z,8.7
2022-11-17T01:31:56.341Z,8.7
2022-11-17T01:32:56.479Z,8.7
2022-11-17T01:33:56.616Z,8.7
2022-11-17T01:34:56.751Z,8.7
2022-11-17T01:35:56.883Z,8.7
2022-11-17T01:36:57.036Z,8.8
2022-11-17T01:37:57.209Z,8.8
2022-11-17T01:38:57.353Z,8.8
2022-11-17T01:39:57.488Z,8.8
2022-11-17T01:40:57.634Z,8.8
2022-11-17T01:41:57.765Z,8.8
2022-11-17T01:42:57.904Z,8.8
2022-11-17T01:43:58.040Z,8.8
2022-11-17T01:44:58.174Z,8.8
2022-11-17T01:45:58.311Z,8.8
2022-11-17T01:47:01.434Z,8.89
2022-11-17T01:48:01.607Z,8.89
2022-11-17T01:49:01.750Z,8.89
2022-11-17T01:50:01.888Z,8.89
2022-11-17T01:51:02.030Z,8.89
2022-11-17T01:52:02.163Z,8.89
2022-11-17T01:53:02.312Z,8.89
2022-11-17T01:54:02.471Z,8.89
2022-11-17T01:55:02.612Z,8.89
2022-11-17T01:56:02.750Z,8.89
2022-11-17T01:57:02.888Z,9
2022-11-17T01:58:03.020Z,9
2022-11-17T01:59:03.160Z,9
2022-11-17T02:00:03.301Z,9
2022-11-17T02:01:03.437Z,9
2022-11-17T02:02:03.702Z,9
2022-11-17T02:03:03.983Z,9
2022-11-17T02:04:04.116Z,9
2022-11-17T02:05:04.255Z,9
2022-11-17T02:06:04.384Z,9
2022-11-17T02:07:04.634Z,9
2022-11-17T02:08:04.870Z,9
2022-11-17T02:09:05.013Z,9
2022-11-17T02:10:05.151Z,9
2022-11-17T02:11:05.288Z,9
2022-11-17T02:12:05.421Z,9
2022-11-17T02:13:05.553Z,9
2022-11-17T02:14:05.688Z,9
2022-11-17T02:15:05.831Z,9
2022-11-17T02:16:05.966Z,9
2022-11-17T02:17:14.568Z,9
2022-11-17T02:18:14.846Z,9
2022-11-17T02:19:14.984Z,9
2022-11-17T02:20:15.122Z,9
2022-11-17T02:21:15.255Z,9
2022-11-17T02:22:15.412Z,9
2022-11-17T02:23:15.540Z,9
2022-11-17T02:24:15.671Z,9
2022-11-17T02:25:15.802Z,9
2022-11-17T02:26:15.941Z,9
2022-11-17T02:27:16.078Z,9
2022-11-17T02:28:16.217Z,9
2022-11-17T02:29:16.362Z,9
2022-11-17T02:30:16.500Z,9
2022-11-17T02:31:16.637Z,9
2022-11-17T02:32:16.773Z,9
2022-11-17T02:33:16.906Z,9
2022-11-17T02:34:17.036Z,9
2022-11-17T02:35:17.167Z,9
2022-11-17T02:36:17.305Z,9
2022-11-17T02:37:17.439Z,9
2022-11-17T02:38:17.602Z,9
2022-11-17T02:39:17.748Z,9
2022-11-17T02:40:17.887Z,9
2022-11-17T02:41:18.029Z,9
2022-11-17T02:42:18.161Z,9
2022-11-17T02:43:18.323Z,9
2022-11-17T02:44:18.478Z,9
2022-11-17T02:45:18.621Z,9
2022-11-17T02:46:18.774Z,9
2022-11-17T02:47:18.907Z,9
2022-11-17T02:48:19.044Z,9
2022-11-17T02:49:19.177Z,9
2022-11-17T02:50:26.868Z,9
2022-11-17T02:51:28.688Z,9.1
2022-11-17T02:52:28.824Z,9.1
2022-11-17T02:53:28.964Z,9.1
2022-11-17T02:54:29.103Z,9.1
2022-11-17T02:55:29.243Z,9.1
2022-11-17T02:56:29.392Z,9.1
2022-11-17T02:57:29.529Z,9.1
2022-11-17T02:58:29.663Z,9.1
2022-11-17T02:59:29.802Z,9.1
2022-11-17T03:00:29.939Z,9.1
2022-11-17T03:01:30.184Z,9.1
2022-11-17T03:02:30.423Z,9.1
2022-11-17T03:03:30.561Z,9.1
2022-11-17T03:04:30.706Z,9.1
2022-11-17T03:05:30.842Z,9.1
2022-11-17T03:06:30.976Z,9.1
2022-11-17T03:07:31.227Z,9
2022-11-17T03:08:33.477Z,9
2022-11-17T03:09:33.629Z,9
2022-11-17T03:10:33.759Z,9
2022-11-17T03:11:33.889Z,9
2022-11-17T03:12:34.024Z,9
2022-11-17T03:13:34.918Z,9
2022-11-17T03:14:35.729Z,9
2022-11-17T03:15:35.866Z,9
2022-11-17T03:16:36.001Z,9
2022-11-17T03:17:36.141Z,8.89
2022-11-17T03:18:36.283Z,8.89
2022-11-17T03:19:36.420Z,8.89
2022-11-17T03:20:36.557Z,8.89
2022-11-17T03:21:36.690Z,8.89
2022-11-17T03:22:36.823Z,8.89
2022-11-17T03:23:37.708Z,8.89
2022-11-17T03:24:38.464Z,8.89
2022-11-17T03:25:38.603Z,8.89
2022-11-17T03:26:38.739Z,8.89
2022-11-17T03:27:38.871Z,8.8
2022-11-17T03:28:39.009Z,8.8
2022-11-17T03:29:39.150Z,8.8
2022-11-17T03:30:39.284Z,8.8
2022-11-17T03:31:39.416Z,8.8
2022-11-17T03:32:39.567Z,8.8
2022-11-17T03:33:39.700Z,8.8
2022-11-17T03:34:39.837Z,8.8
2022-11-17T03:35:39.972Z,8.8
2022-11-17T03:36:40.104Z,8.8
2022-11-17T03:37:40.239Z,8.7
2022-11-17T03:38:40.375Z,8.7
2022-11-17T03:39:40.511Z,8.7
2022-11-17T03:40:40.647Z,8.7
2022-11-17T03:41:40.776Z,8.7
2022-11-17T03:42:40.913Z,8.7
2022-11-17T03:43:41.046Z,8.7
2022-11-17T03:44:41.187Z,8.7
2022-11-17T03:45:41.337Z,8.7
2022-11-17T03:46:41.479Z,8.7
2022-11-17T03:47:41.616Z,8.7
2022-11-17T03:48:41.755Z,8.7
2022-11-17T03:49:41.909Z,8.7
2022-11-17T03:50:42.045Z,8.7
2022-11-17T03:51:42.190Z,8.7
2022-11-17T03:52:42.325Z,8.7
2022-11-17T03:53:42.460Z,8.7
2022-11-17T03:54:42.599Z,8.7
2022-11-17T03:55:42.730Z,8.7
2022-11-17T03:56:42.860Z,8.7
2022-11-17T03:57:42.993Z,8.7
2022-11-17T03:58:43.126Z,8.7
2022-11-17T03:59:43.329Z,8.7
2022-11-17T04:00:43.462Z,8.7
2022-11-17T04:01:43.752Z,8.7
2022-11-17T04:02:43.961Z,8.7
2022-11-17T04:03:44.106Z,8.7
2022-11-17T04:04:44.244Z,8.7
2022-11-17T04:05:44.372Z,8.7
2022-11-17T04:06:44.504Z,8.7
2022-11-17T04:07:44.650Z,8.7
2022-11-17T04:08:44.782Z,8.7
2022-11-17T04:09:44.914Z,8.7
2022-11-17T04:10:45.045Z,8.7
2022-11-17T04:11:45.185Z,8.7
2022-11-17T04:12:45.333Z,8.7
2022-11-17T04:13:45.472Z,8.7
2022-11-17T04:14:45.773Z,8.7
2022-11-17T04:15:46.080Z,8.7
2022-11-17T04:16:46.237Z,8.8
2022-11-17T04:17:46.371Z,8.8
2022-11-17T04:18:46.513Z,8.8
2022-11-17T04:19:46.647Z,8.8
2022-11-17T04:20:46.793Z,8.8
2022-11-17T04:21:46.930Z,8.8
2022-11-17T04:22:47.067Z,8.8
2022-11-17T04:23:47.208Z,8.8
2022-11-17T04:24:47.352Z,8.8
2022-11-17T04:25:47.488Z,8.8
2022-11-17T04:26:47.623Z,8.89
2022-11-17T04:27:47.761Z,8.89
2022-11-17T04:28:47.899Z,8.89
2022-11-17T04:29:48.034Z,8.89
2022-11-17T04:30:48.170Z,8.89
2022-11-17T04:31:48.310Z,8.89
2022-11-17T04:32:48.471Z,8.89
2022-11-17T04:33:48.680Z,8.89
2022-11-17T04:34:48.817Z,8.89
2022-11-17T04:35:48.949Z,8.89
2022-11-17T04:36:49.085Z,9
2022-11-17T04:37:49.216Z,9
2022-11-17T04:38:49.356Z,9
2022-11-17T04:39:49.496Z,9
2022-11-17T04:40:49.637Z,9
2022-11-17T04:41:49.775Z,9
2022-11-17T04:42:49.913Z,9
2022-11-17T04:43:50.049Z,9
2022-11-17T04:44:50.187Z,9
2022-11-17T04:45:50.328Z,9
2022-11-17T04:46:50.476Z,9
2022-11-17T04:47:50.605Z,9
2022-11-17T04:48:50.739Z,9
2022-11-17T04:49:50.871Z,9
2022-11-17T04:50:51.001Z,9
2022-11-17T04:51:51.135Z,9
2022-11-17T04:52:51.271Z,9
2022-11-17T04:53:51.408Z,9
2022-11-17T04:54:51.538Z,9
2022-11-17T04:55:51.668Z,9
2022-11-17T04:56:51.809Z,9.1
2022-11-17T04:57:51.946Z,9.1
2022-11-17T04:58:52.103Z,9.1
2022-11-17T04:59:52.241Z,9.1
2022-11-17T05:00:52.375Z,9.1
2022-11-17T05:01:52.646Z,9.1
2022-11-17T05:02:52.883Z,9.1
2022-11-17T05:03:53.025Z,9.1
2022-11-17T05:04:53.166Z,9.1
2022-11-17T05:05:53.304Z,9.1
2022-11-17T05:06:53.512Z,9.2
2022-11-17T05:07:53.757Z,9.2
2022-11-17T05:08:53.894Z,9.2
2022-11-17T05:09:54.032Z,9.2
2022-11-17T05:10:54.252Z,9.2
2022-11-17T05:11:54.417Z,9.2
2022-11-17T05:12:54.560Z,9.2
2022-11-17T05:13:54.695Z,9.2
2022-11-17T05:14:54.837Z,9.2
2022-11-17T05:15:54.966Z,9.2
2022-11-17T05:16:55.151Z,9.2
2022-11-17T05:17:55.291Z,9.2
2022-11-17T05:18:55.428Z,9.2
2022-11-17T05:19:55.565Z,9.2
2022-11-17T05:20:55.705Z,9.2
2022-11-17T05:21:55.843Z,9.2
2022-11-17T05:22:55.975Z,9.2
2022-11-17T05:23:56.115Z,9.2
2022-11-17T05:24:56.268Z,9.2
2022-11-17T05:25:56.398Z,9.2
2022-11-17T05:26:56.540Z,9.3
2022-11-17T05:27:56.671Z,9.3
2022-11-17T05:28:56.806Z,9.3
2022-11-17T05:29:56.941Z,9.3
2022-11-17T05:30:57.079Z,9.3
2022-11-17T05:31:57.206Z,9.3
2022-11-17T05:32:57.339Z,9.3
2022-11-17T05:33:57.468Z,9.3
2022-11-17T05:34:57.605Z,9.3
2022-11-17T05:35:57.755Z,9.3
2022-11-17T05:36:57.890Z,9.39
2022-11-17T05:37:58.025Z,9.39
2022-11-17T05:38:58.162Z,9.39
2022-11-17T05:39:58.299Z,9.39
2022-11-17T05:40:58.473Z,9.39
2022-11-17T05:41:58.684Z,9.39
2022-11-17T05:42:58.819Z,9.39
2022-11-17T05:43:58.958Z,9.39
2022-11-17T05:44:59.093Z,9.39
2022-11-17T05:45:59.234Z,9.39
2022-11-17T05:46:59.370Z,9.39
2022-11-17T05:47:59.513Z,9.39
2022-11-17T05:48:59.661Z,9.39
2022-11-17T05:49:59.799Z,9.39
2022-11-17T05:51:00.004Z,9.39
2022-11-17T05:52:00.143Z,9.39
2022-11-17T05:53:00.301Z,9.39
2022-11-17T05:54:00.568Z,9.39
2022-11-17T05:55:00.852Z,9.39
2022-11-17T05:56:00.996Z,9.39
2022-11-17T05:57:01.132Z,9.5
2022-11-17T05:58:01.283Z,9.5
2022-11-17T05:59:01.428Z,9.5
2022-11-17T06:00:01.556Z,9.5
2022-11-17T06:01:01.704Z,9.5
2022-11-17T06:02:01.841Z,9.5
2022-11-17T06:03:01.972Z,9.5
2022-11-17T06:04:02.205Z,9.5
2022-11-17T06:05:02.440Z,9.5
2022-11-17T06:06:02.586Z,9.5
2022-11-17T06:07:02.882Z,9.5
2022-11-17T06:08:03.118Z,9.5
2022-11-17T06:09:03.252Z,9.5
2022-11-17T06:10:03.387Z,9.5
2022-11-17T06:11:03.530Z,9.5
2022-11-17T06:12:06.681Z,9.5
2022-11-17T06:13:06.971Z,9.5
2022-11-17T06:14:07.107Z,9.5
2022-11-17T06:15:07.247Z,9.5
2022-11-17T06:16:07.378Z,9.5
2022-11-17T06:17:07.509Z,9.5
2022-11-17T06:18:07.648Z,9.5
2022-11-17T06:19:07.784Z,9.5
2022-11-17T06:20:07.920Z,9.5
2022-11-17T06:21:08.053Z,9.5
2022-11-17T06:22:13.841Z,9.5
2022-11-17T06:23:14.261Z,9.6
2022-11-17T06:24:14.400Z,9.6
2022-11-17T06:25:14.535Z,9.6
2022-11-17T06:26:14.669Z,9.6
2022-11-17T06:27:14.951Z,9.6
2022-11-17T06:28:15.348Z,9.6
2022-11-17T06:29:15.499Z,9.6
2022-11-17T06:30:15.651Z,9.6
2022-11-17T06:31:15.800Z,9.6
2022-11-17T06:32:16.001Z,9.6
2022-11-17T06:33:16.146Z,9.6
2022-11-17T06:34:16.309Z,9.6
2022-11-17T06:35:16.661Z,9.6
2022-11-17T06:36:16.826Z,9.6
2022-11-17T06:37:16.972Z,9.6
2022-11-17T06:38:17.143Z,9.6
2022-11-17T06:39:17.292Z,9.6
2022-11-17T06:40:17.438Z,9.6
2022-11-17T06:41:17.578Z,9.6
2022-11-17T06:42:17.736Z,9.6
2022-11-17T06:43:17.886Z,9.6
2022-11-17T06:44:18.018Z,9.6
2022-11-17T06:45:18.167Z,9.6
2022-11-17T06:46:18.327Z,9.6
2022-11-17T06:47:18.490Z,9.5
2022-11-17T06:48:18.643Z,9.5
2022-11-17T06:49:18.792Z,9.5
2022-11-17T06:50:18.934Z,9.5
2022-11-17T06:51:19.070Z,9.5
2022-11-17T06:52:19.208Z,9.5
2022-11-17T06:53:19.354Z,9.5
2022-11-17T06:54:19.504Z,9.5
2022-11-17T06:55:19.660Z,9.5
2022-11-17T06:56:19.837Z,9.5
2022-11-17T06:57:19.985Z,9.5
2022-11-17T06:58:20.139Z,9.5
2022-11-17T06:59:20.303Z,9.5
2022-11-17T07:00:20.456Z,9.5
2022-11-17T07:01:20.803Z,9.5
2022-11-17T07:02:21.137Z,9.5
2022-11-17T07:03:21.291Z,9.5
2022-11-17T07:04:21.444Z,9.5
2022-11-17T07:05:21.614Z,9.5
2022-11-17T07:06:21.765Z,9.5
2022-11-17T07:07:22.057Z,9.39
2022-11-17T07:08:22.303Z,9.39
2022-11-17T07:09:22.453Z,9.39
2022-11-17T07:10:22.610Z,9.39
2022-11-17T07:11:22.774Z,9.39
2022-11-17T07:12:22.932Z,9.39
2022-11-17T07:13:23.372Z,9.39
2022-11-17T07:14:24.120Z,9.39
2022-11-17T07:15:24.278Z,9.39
2022-11-17T07:16:24.429Z,9.39
2022-11-17T07:17:24.587Z,9.39
2022-11-17T07:18:24.742Z,9.39
2022-11-17T07:19:24.888Z,9.39
2022-11-17T07:20:25.037Z,9.39
2022-11-17T07:21:25.187Z,9.39
2022-11-17T07:22:25.349Z,9.39
2022-11-17T07:23:25.501Z,9.39
2022-11-17T07:24:25.652Z,9.39
2022-11-17T07:25:25.816Z,9.39
2022-11-17T07:26:25.970Z,9.39
2022-11-17T07:27:26.129Z,9.5
2022-11-17T07:28:26.288Z,9.5
2022-11-17T07:29:26.439Z,9.5
2022-11-17T07:30:26.826Z,9.5
2022-11-17T07:31:27.062Z,9.5
2022-11-17T07:32:27.233Z,9.5
2022-11-17T07:33:27.381Z,9.5
2022-11-17T07:34:27.530Z,9.5
2022-11-17T07:35:27.681Z,9.5
2022-11-17T07:36:27.838Z,9.5
2022-11-17T07:37:27.984Z,9.6
2022-11-17T07:38:28.135Z,9.6
2022-11-17T07:39:28.283Z,9.6
2022-11-17T07:40:28.435Z,9.6
2022-11-17T07:41:28.587Z,9.6
2022-11-17T07:42:28.739Z,9.6
2022-11-17T07:43:28.914Z,9.6
2022-11-17T07:44:29.082Z,9.6
2022-11-17T07:45:32.368Z,9.6
2022-11-17T07:46:32.714Z,9.6
2022-11-17T07:47:32.880Z,10.1
2022-11-17T07:48:33.837Z,10.1
2022-11-17T07:49:34.723Z,10.1
2022-11-17T07:50:34.887Z,10.1
2022-11-17T07:51:35.044Z,10.1
2022-11-17T07:52:41.686Z,10.1
2022-11-17T07:53:41.984Z,10.6
2022-11-17T07:54:42.144Z,10.6
2022-11-17T07:55:42.312Z,10.6
2022-11-17T07:56:42.463Z,10.6
2022-11-17T07:57:42.620Z,10.9
2022-11-17T07:58:42.791Z,10.9
2022-11-17T07:59:43.123Z,10.9
2022-11-17T08:00:43.375Z,10.9
2022-11-17T08:01:43.589Z,10.9
2022-11-17T08:02:43.742Z,10.9
2022-11-17T08:03:44.068Z,10.9
2022-11-17T08:04:44.596Z,10.9
2022-11-17T08:05:44.830Z,10.9
2022-11-17T08:06:44.981Z,11.6
2022-11-17T08:07:45.131Z,11.6
2022-11-17T08:08:45.284Z,11.6
2022-11-17T08:09:45.431Z,11.6
2022-11-17T08:10:45.610Z,11.6
2022-11-17T08:11:45.897Z,11.6
2022-11-17T08:12:46.047Z,11.6
2022-11-17T08:13:46.194Z,11.6
2022-11-17T08:14:46.369Z,11.6
2022-11-17T08:15:46.520Z,11.6
2022-11-17T08:16:46.672Z,12.2
2022-11-17T08:17:46.822Z,12.2
2022-11-17T08:18:52.834Z,12.2
2022-11-17T08:19:53.164Z,12.4
2022-11-17T08:20:53.481Z,12.4
2022-11-17T08:21:53.794Z,12.4
2022-11-17T08:22:53.941Z,12.4
2022-11-17T08:23:54.099Z,12.4
2022-11-17T08:24:54.257Z,12.4
2022-11-17T08:25:54.418Z,12.4
2022-11-17T08:26:54.573Z,12.8
2022-11-17T08:27:54.729Z,12.8
2022-11-17T08:28:59.161Z,12.8
2022-11-17T08:29:59.366Z,12.9
2022-11-17T08:30:59.520Z,12.9
2022-11-17T08:31:59.673Z,12.9
2022-11-17T08:32:59.842Z,12.9
2022-11-17T08:33:59.999Z,12.9
2022-11-17T08:35:00.205Z,12.9
2022-11-17T08:36:00.371Z,12.9
2022-11-17T08:37:00.533Z,13.3
2022-11-17T08:38:00.681Z,13.3
2022-11-17T08:39:00.828Z,13.3
2022-11-17T08:40:00.994Z,13.3
2022-11-17T08:41:01.144Z,13.3
2022-11-17T08:42:01.310Z,13.3
2022-11-17T08:43:01.958Z,13.3
2022-11-17T08:44:02.125Z,13.3
2022-11-17T08:45:02.284Z,13.3
2022-11-17T08:46:02.434Z,13.3
2022-11-17T08:47:02.584Z,13.6
2022-11-17T08:48:02.739Z,13.6
2022-11-17T08:49:02.891Z,13.6
2022-11-17T08:50:03.058Z,13.6
2022-11-17T08:51:03.222Z,13.6
2022-11-17T08:52:03.384Z,13.6
2022-11-17T08:53:03.536Z,13.6
2022-11-17T08:54:03.689Z,13.6
2022-11-17T08:55:03.996Z,13.6
2022-11-17T08:56:04.292Z,13.6
2022-11-17T08:57:04.575Z,13.8
2022-11-17T08:58:04.826Z,13.8
2022-11-17T08:59:04.979Z,13.8
2022-11-17T09:00:05.134Z,13.8
2022-11-17T09:01:05.865Z,13.8
2022-11-17T09:02:06.072Z,13.8
2022-11-17T09:03:06.231Z,13.8
2022-11-17T09:04:06.382Z,13.8
2022-11-17T09:05:06.537Z,13.8
2022-11-17T09:06:06.697Z,13.8
2022-11-17T09:07:06.974Z,13.3
2022-11-17T09:08:45.316Z,13.3
2022-11-17T09:09:47.535Z,13.1
2022-11-17T09:10:47.688Z,13.1
2022-11-17T09:11:47.848Z,13.1
2022-11-17T09:12:48.023Z,13.1
2022-11-17T09:13:48.177Z,13.1
2022-11-17T09:14:48.328Z,13.1
2022-11-17T09:15:48.484Z,13.1
2022-11-17T09:16:48.646Z,12.4
2022-11-17T09:17:48.795Z,12.4
2022-11-17T09:18:48.954Z,12.4
2022-11-17T09:19:49.103Z,12.4
2022-11-17T09:20:49.256Z,12.4
2022-11-17T09:21:49.485Z,12.4
2022-11-17T09:22:49.702Z,12.4
2022-11-17T09:23:49.865Z,12.4
2022-11-17T09:24:50.027Z,12.4
2022-11-17T09:25:50.182Z,12.4
2022-11-17T09:26:50.336Z,11.5
2022-11-17T09:27:50.502Z,11.5
2022-11-17T09:28:50.659Z,11.5
2022-11-17T09:29:50.803Z,11.5
2022-11-17T09:30:50.963Z,11.5
2022-11-17T09:31:51.316Z,11.5
2022-11-17T09:32:51.609Z,11.5
2022-11-17T09:33:51.895Z,11.5
2022-11-17T09:34:52.297Z,11.5
2022-11-17T09:35:52.614Z,11.5
2022-11-17T09:36:52.769Z,11
2022-11-17T09:37:52.933Z,11
2022-11-17T09:38:53.085Z,11
2022-11-17T09:39:53.485Z,11
2022-11-17T09:40:53.814Z,11
2022-11-17T09:41:53.970Z,11
2022-11-17T09:42:54.142Z,11
2022-11-17T09:43:54.298Z,11
2022-11-17T09:44:54.446Z,11
2022-11-17T09:45:54.595Z,11
2022-11-17T09:46:54.799Z,10.7
2022-11-17T09:48:39.335Z,10.7
2022-11-17T09:49:41.869Z,10.7
2022-11-17T09:50:42.024Z,10.7
2022-11-17T09:51:42.174Z,10.7
2022-11-17T09:52:42.337Z,10.7
2022-11-17T09:53:42.492Z,10.7
2022-11-17T09:54:43.216Z,10.7
2022-11-17T09:55:43.420Z,10.7
2022-11-17T09:56:43.627Z,10.6
2022-11-17T09:57:43.812Z,10.6
2022-11-17T09:58:43.981Z,10.6
2022-11-17T09:59:44.141Z,10.6
2022-11-17T10:00:44.299Z,10.6
2022-11-17T10:01:44.531Z,10.6
2022-11-17T10:02:44.921Z,10.6
2022-11-17T10:03:47.012Z,10.6
2022-11-17T10:04:47.938Z,10.6
2022-11-17T10:05:48.095Z,10.6
2022-11-17T10:06:48.246Z,10.7
2022-11-17T10:07:48.400Z,10.7
2022-11-17T10:08:48.559Z,10.7
2022-11-17T10:09:48.729Z,10.7
2022-11-17T10:10:48.966Z,10.7
2022-11-17T10:11:49.115Z,10.7
2022-11-17T10:12:49.279Z,10.7
2022-11-17T10:13:49.430Z,10.7
2022-11-17T10:14:49.603Z,10.7
2022-11-17T10:15:49.781Z,10.7
2022-11-17T10:16:49.946Z,11
2022-11-17T10:17:50.110Z,11
2022-11-17T10:18:50.285Z,11
2022-11-17T10:19:50.445Z,11
2022-11-17T10:20:50.611Z,11
2022-11-17T10:21:50.763Z,11
2022-11-17T10:22:50.919Z,11
2022-11-17T10:23:51.070Z,11
2022-11-17T10:24:51.234Z,11
2022-11-17T10:25:51.402Z,11
2022-11-17T10:26:51.566Z,11.4
2022-11-17T10:27:51.718Z,11.4
2022-11-17T10:28:51.871Z,11.4
2022-11-17T10:29:52.042Z,11.4
2022-11-17T10:30:52.217Z,11.4
2022-11-17T10:31:52.411Z,11.4
2022-11-17T10:32:52.603Z,11.4
2022-11-17T10:33:52.905Z,11.4
2022-11-17T10:34:53.173Z,11.4
2022-11-17T10:35:53.329Z,11.4
2022-11-17T10:36:53.479Z,11.9
2022-11-17T10:37:53.654Z,11.9
2022-11-17T10:38:53.807Z,11.9
2022-11-17T10:39:53.959Z,11.9
2022-11-17T10:40:54.113Z,11.9
2022-11-17T10:41:54.274Z,11.9
2022-11-17T10:42:54.429Z,11.9
2022-11-17T10:43:54.578Z,11.9
2022-11-17T10:44:54.736Z,11.9
2022-11-17T10:45:54.902Z,11.9
2022-11-17T10:47:02.862Z,12.3
2022-11-17T10:48:03.398Z,12.3
2022-11-17T10:49:03.558Z,12.3
2022-11-17T10:50:03.735Z,12.3
2022-11-17T10:51:03.960Z,12.3
2022-11-17T10:52:04.115Z,12.3
2022-11-17T10:53:11.547Z,12.3
2022-11-17T10:54:13.088Z,12.5
2022-11-17T10:55:13.247Z,12.5
2022-11-17T10:56:13.396Z,12.5
2022-11-17T10:57:13.549Z,12.6
2022-11-17T10:58:13.701Z,12.6
2022-11-17T10:59:13.871Z,12.6
2022-11-17T11:00:14.040Z,12.6
2022-11-17T11:01:14.296Z,12.6
2022-11-17T11:02:14.567Z,12.6
2022-11-17T11:03:14.718Z,12.6
2022-11-17T11:04:14.872Z,12.6
2022-11-17T11:05:15.028Z,12.6
2022-11-17T11:06:17.744Z,12.6
2022-11-17T11:07:17.997Z,12.6
2022-11-17T11:08:18.232Z,12.6
2022-11-17T11:09:18.384Z,12.6
2022-11-17T11:10:18.548Z,12.6
2022-11-17T11:11:18.753Z,12.6
2022-11-17T11:12:18.904Z,12.6
2022-11-17T11:13:19.054Z,12.6
2022-11-17T11:14:19.221Z,12.6
2022-11-17T11:15:19.379Z,12.6
2022-11-17T11:16:19.533Z,12.6
2022-11-17T11:17:19.692Z,13
2022-11-17T11:18:19.841Z,13
2022-11-17T11:19:20.046Z,13
2022-11-17T11:20:20.183Z,13
2022-11-17T11:21:20.324Z,13
2022-11-17T11:22:21.794Z,13
2022-11-17T11:23:21.986Z,13
2022-11-17T11:24:22.135Z,13
2022-11-17T11:25:22.293Z,13
2022-11-17T11:26:22.459Z,13
2022-11-17T11:27:22.622Z,13.5
2022-11-17T11:28:22.775Z,13.5
2022-11-17T11:29:22.926Z,13.5
2022-11-17T11:30:23.087Z,13.5
2022-11-17T11:31:23.371Z,13.5
2022-11-17T11:32:23.584Z,13.5
2022-11-17T11:33:23.734Z,13.5
2022-11-17T11:34:23.902Z,13.5
2022-11-17T11:35:24.066Z,13.5
2022-11-17T11:36:24.243Z,13.5
2022-11-17T11:37:24.410Z,14.2
2022-11-17T11:38:24.639Z,14.2
2022-11-17T11:39:24.789Z,14.2
2022-11-17T11:40:24.950Z,14.2
2022-11-17T11:41:25.102Z,14.2
2022-11-17T11:42:25.242Z,14.2
2022-11-17T11:43:25.395Z,14.2
2022-11-17T11:44:25.546Z,14.2
2022-11-17T11:45:25.696Z,14.2
2022-11-17T11:46:25.853Z,14.2
2022-11-17T11:47:26.007Z,14.5
2022-11-17T11:48:26.154Z,14.5
2022-11-17T11:49:26.311Z,14.5
2022-11-17T11:50:26.467Z,14.5
2022-11-17T11:51:26.635Z,14.5
2022-11-17T11:52:26.785Z,14.5
2022-11-17T11:53:26.939Z,14.5
2022-11-17T11:54:27.092Z,14.5
2022-11-17T11:55:27.239Z,14.5
2022-11-17T11:56:27.397Z,14.5
2022-11-17T11:57:27.550Z,14.5
2022-11-17T11:58:27.696Z,14.5
2022-11-17T11:59:27.864Z,14.5
2022-11-17T12:00:28.017Z,14.5
2022-11-17T12:01:28.167Z,14.5
2022-11-17T12:02:28.413Z,14.5
2022-11-17T12:03:28.814Z,14.5
2022-11-17T12:04:29.156Z,14.5
2022-11-17T12:05:29.710Z,14.5
2022-11-17T12:06:29.875Z,14.5
2022-11-17T12:07:30.108Z,14.4
2022-11-17T12:08:30.356Z,14.4
2022-11-17T12:09:30.513Z,14.4
2022-11-17T12:10:30.665Z,14.4
2022-11-17T12:11:30.818Z,14.4
2022-11-17T12:12:30.972Z,14.4
2022-11-17T12:13:31.123Z,14.4
2022-11-17T12:14:31.278Z,14.4
2022-11-17T12:15:31.447Z,14.4
2022-11-17T12:16:31.733Z,14.4
2022-11-17T12:17:31.994Z,14.2
2022-11-17T12:18:32.213Z,14.2
2022-11-17T12:19:32.358Z,14.2
2022-11-17T12:20:32.511Z,14.2
2022-11-17T12:21:32.662Z,14.2
2022-11-17T12:22:32.837Z,14.2
2022-11-17T12:23:32.989Z,14.2
2022-11-17T12:24:33.141Z,14.2
2022-11-17T12:25:33.354Z,14.2
2022-11-17T12:26:33.503Z,14.2
2022-11-17T12:27:33.710Z,14
2022-11-17T12:28:33.863Z,14
2022-11-17T12:29:34.014Z,14
2022-11-17T12:30:34.165Z,14
2022-11-17T12:31:34.315Z,14
2022-11-17T12:32:34.466Z,14
2022-11-17T12:33:34.622Z,14
2022-11-17T12:34:34.772Z,14
2022-11-17T12:35:34.924Z,14
2022-11-17T12:36:35.074Z,14
2022-11-17T12:37:35.226Z,13.9
2022-11-17T12:38:35.383Z,13.9
2022-11-17T12:39:35.531Z,13.9
2022-11-17T12:40:35.679Z,13.9
2022-11-17T12:41:35.836Z,13.9
2022-11-17T12:42:35.998Z,13.9
2022-11-17T12:43:36.166Z,13.9
2022-11-17T12:44:36.326Z,13.9
2022-11-17T12:45:42.027Z,13.9
2022-11-17T12:46:42.267Z,13.9
2022-11-17T12:47:42.556Z,13.9
2022-11-17T12:48:42.990Z,13.9
2022-11-17T12:49:43.191Z,13.9
2022-11-17T12:50:43.348Z,13.9
2022-11-17T12:51:43.502Z,13.9
2022-11-17T12:52:43.669Z,13.9
2022-11-17T12:53:43.840Z,13.9
2022-11-17T12:54:44.009Z,13.9
2022-11-17T12:55:44.165Z,13.9
2022-11-17T12:56:44.332Z,13.9
2022-11-17T12:57:44.483Z,13.9
2022-11-17T12:58:44.636Z,13.9
2022-11-17T12:59:44.792Z,13.9
2022-11-17T13:00:44.950Z,13.9
2022-11-17T13:01:45.263Z,13.9
2022-11-17T13:02:45.498Z,13.9
2022-11-17T13:03:45.651Z,13.9
2022-11-17T13:04:49.992Z,13.9
2022-11-17T13:06:34.183Z,13.9
2022-11-17T13:07:36.779Z,13.9
2022-11-17T13:08:37.040Z,13.9
2022-11-17T13:09:37.191Z,13.9
2022-11-17T13:10:37.350Z,13.9
2022-11-17T13:11:37.502Z,13.9
2022-11-17T13:12:37.670Z,13.9
2022-11-17T13:13:45.559Z,13.9
2022-11-17T13:14:47.449Z,14.2
2022-11-17T13:15:47.613Z,14.2
2022-11-17T13:16:47.795Z,14.4
2022-11-17T13:17:48.002Z,14.4
2022-11-17T13:18:48.157Z,14.4
2022-11-17T13:19:48.314Z,14.4
2022-11-17T13:20:48.470Z,14.4
2022-11-17T13:21:48.622Z,14.4
2022-11-17T13:22:48.774Z,14.4
2022-11-17T13:23:48.926Z,14.4
2022-11-17T13:24:49.077Z,14.4
2022-11-17T13:25:49.228Z,14.4
2022-11-17T13:26:49.383Z,15
2022-11-17T13:28:01.573Z,15
2022-11-17T13:29:05.484Z,15.1
2022-11-17T13:30:06.076Z,15.1
2022-11-17T13:31:06.224Z,15.1
2022-11-17T13:32:06.372Z,15.1
2022-11-17T13:33:06.538Z,15.1
2022-11-17T13:34:06.702Z,15.1
2022-11-17T13:35:06.860Z,15.1
2022-11-17T13:36:07.019Z,15.1
2022-11-17T13:37:07.212Z,15.7
2022-11-17T13:38:07.396Z,15.7
2022-11-17T13:39:07.571Z,15.7
2022-11-17T13:40:07.903Z,15.7
2022-11-17T13:41:08.170Z,15.7
2022-11-17T13:42:08.320Z,15.7
2022-11-17T13:43:08.468Z,15.7
2022-11-17T13:44:08.621Z,15.7
2022-11-17T13:45:08.776Z,15.7
2022-11-17T13:46:08.926Z,15.7